Flag for USA

Past Weather in 41°29'44"N, 87°02'50"W, USA — Yesterday and Last 2 Weeks

Currently: 49 °F. Mostly cloudy. (Weather station: Lansing Municipal Airport, USA). See more current weather

Past Weather in 41°29'44"N, 87°02'50"W — Graph

°F

41°29'44"N, 87°02'50"W Temperature Yesterday

Maximum temperature yesterday: 60 °F (at 1:55 pm)
Minimum temperature yesterday: 43 °F (at 6:15 am)
Average temperature yesterday: 52 °F

High & Low Weather Summary for the Past Weeks

 TemperatureHumidityPressure
High90 °F (Sep 20, 3:35 pm)100% (Sep 13, 12:15 am)30.29 "Hg (Sep 13, 12:15 am)
Low43 °F (Sep 27, 6:15 am)42% (Sep 27, 1:55 pm)29.71 "Hg (Sep 25, 5:15 am)
Average64 °F76%30.01 "Hg
* Reported Sep 13 12:15 am — Sep 28 12:35 am, 41°29'44"N, 87°02'50"W. Weather by CustomWeather, © 2022

Note: Actual official high and low records may vary slightly from our data, if they occured in-between our weather recording intervals... More about our weather records

41°29'44"N, 87°02'50"W Weather History for the Previous 24 Hours

Scroll right to see more
 ConditionsComfort  
Time TempWeatherWind HumidityBarometerVisibility
12:35 am
Wed, Sep 28
49 °FPartly cloudy.6 mph69%30.29 "Hg10 mi
12:15 am50 °FPartly cloudy.8 mph66%30.28 "Hg10 mi
11:55 pm
Tue, Sep 27
51 °FOvercast.8 mph64%30.28 "Hg10 mi
11:35 pm51 °FOvercast.8 mph64%30.28 "Hg10 mi
10:55 pm51 °FPassing clouds.6 mph63%30.27 "Hg10 mi
10:35 pm51 °FPassing clouds.8 mph61%30.26 "Hg10 mi
10:15 pm52 °FOvercast.9 mph59%30.26 "Hg10 mi
9:35 pm53 °FMostly cloudy.10 mph54%30.25 "Hg10 mi
9:15 pm53 °FOvercast.8 mph54%30.24 "Hg10 mi
8:35 pm52 °FPassing clouds.6 mph56%30.24 "Hg10 mi
7:55 pm53 °FClear.7 mph55%30.22 "Hg10 mi
6:35 pm56 °FOvercast.8 mph49%30.19 "Hg10 mi
5:55 pm56 °FPassing clouds.10 mph48%30.18 "Hg10 mi
5:35 pm57 °FMore clouds than sun.6 mph49%30.18 "Hg10 mi
4:55 pm57 °FMostly cloudy.5 mph50%30.17 "Hg10 mi
4:35 pm57 °FMostly cloudy.9 mph47%30.16 "Hg10 mi
4:15 pm58 °FMore clouds than sun.10 mph44%30.15 "Hg10 mi
3:35 pm58 °FMore clouds than sun.7 mph43%30.14 "Hg10 mi
3:15 pm59 °FOvercast.10 mph43%30.13 "Hg10 mi
2:35 pm60 °FScattered clouds.12 mph42%30.13 "Hg10 mi
1:55 pm60 °FScattered clouds.10 mph42%30.12 "Hg10 mi
1:35 pm57 °FScattered clouds.12 mph43%30.12 "Hg10 mi
12:55 pm58 °FPartly sunny.10 mph44%30.11 "Hg10 mi
12:35 pm57 °FOvercast.10 mph46%30.11 "Hg10 mi
11:55 am58 °FScattered clouds.12 mph49%30.10 "Hg10 mi
11:35 am57 °FPartly sunny.10 mph49%30.10 "Hg10 mi
11:15 am56 °FPartly sunny.14 mph51%30.09 "Hg10 mi
10:55 am55 °FPartly sunny.16 mph52%30.09 "Hg10 mi
10:35 am57 °FScattered clouds.10 mph52%30.08 "Hg10 mi
9:35 am53 °FSunny.10 mph62%30.07 "Hg10 mi
9:15 am53 °FSunny.8 mph68%30.06 "Hg10 mi
8:35 am49 °FCool.8 mph76%30.05 "Hg10 mi
7:55 am47 °FSunny.8 mph80%30.04 "Hg10 mi
7:35 am45 °FSunny.6 mph88%30.04 "Hg10 mi
6:55 am43 °FSunny.5 mph92%30.02 "Hg10 mi
6:15 am43 °FSunny.6 mph90%30.01 "Hg10 mi
5:55 am44 °FSunny.5 mph89%30.00 "Hg10 mi
5:35 am44 °FClear.3 mph86%29.99 "Hg10 mi
5:15 am45 °FClear.5 mph84%29.99 "Hg10 mi
4:55 am45 °FClear.5 mph83%29.98 "Hg10 mi
4:35 am46 °FClear.5 mph82%29.97 "Hg10 mi
3:55 am46 °FClear.5 mph82%29.97 "Hg10 mi
3:35 am46 °FClear.5 mph82%29.97 "Hg10 mi
3:15 am47 °FClear.6 mph79%29.97 "Hg10 mi
2:35 am47 °FClear.8 mph81%29.97 "Hg10 mi
Weather by CustomWeather, © 2022

See weather overview